sensor_id;sensor_type;location;lat;lon;timestamp;P1;durP1;ratioP1;P2;durP2;ratioP2
16965;SDS011;8599;47.852;12.070;2022-12-07T00:01:19;8.27;;;4.80;;
16965;SDS011;8599;47.852;12.070;2022-12-07T00:03:48;7.73;;;4.37;;
16965;SDS011;8599;47.852;12.070;2022-12-07T00:06:17;5.07;;;3.67;;
16965;SDS011;8599;47.852;12.070;2022-12-07T00:08:45;6.40;;;4.63;;
16965;SDS011;8599;47.852;12.070;2022-12-07T00:11:13;10.03;;;4.80;;
16965;SDS011;8599;47.852;12.070;2022-12-07T00:13:42;8.63;;;4.67;;
16965;SDS011;8599;47.852;12.070;2022-12-07T00:16:10;6.17;;;4.23;;
16965;SDS011;8599;47.852;12.070;2022-12-07T00:18:39;6.70;;;4.13;;
16965;SDS011;8599;47.852;12.070;2022-12-07T00:21:09;8.37;;;4.97;;
16965;SDS011;8599;47.852;12.070;2022-12-07T00:23:37;8.00;;;4.77;;
16965;SDS011;8599;47.852;12.070;2022-12-07T00:26:05;7.93;;;4.97;;
16965;SDS011;8599;47.852;12.070;2022-12-07T00:28:33;6.80;;;4.67;;
16965;SDS011;8599;47.852;12.070;2022-12-07T00:31:01;7.63;;;5.33;;
16965;SDS011;8599;47.852;12.070;2022-12-07T00:33:29;5.23;;;4.00;;
16965;SDS011;8599;47.852;12.070;2022-12-07T00:35:56;8.43;;;5.13;;
16965;SDS011;8599;47.852;12.070;2022-12-07T00:38:24;9.07;;;5.00;;
16965;SDS011;8599;47.852;12.070;2022-12-07T00:40:55;12.83;;;5.03;;
16965;SDS011;8599;47.852;12.070;2022-12-07T00:43:22;5.43;;;4.17;;
16965;SDS011;8599;47.852;12.070;2022-12-07T00:45:49;7.87;;;4.40;;
16965;SDS011;8599;47.852;12.070;2022-12-07T00:48:16;7.20;;;4.83;;
16965;SDS011;8599;47.852;12.070;2022-12-07T00:50:43;10.07;;;4.97;;
16965;SDS011;8599;47.852;12.070;2022-12-07T00:53:10;8.27;;;4.70;;
16965;SDS011;8599;47.852;12.070;2022-12-07T00:55:38;7.83;;;5.00;;
16965;SDS011;8599;47.852;12.070;2022-12-07T00:58:05;9.70;;;5.03;;
16965;SDS011;8599;47.852;12.070;2022-12-07T01:00:32;7.60;;;4.27;;
16965;SDS011;8599;47.852;12.070;2022-12-07T01:03:00;7.30;;;4.87;;
16965;SDS011;8599;47.852;12.070;2022-12-07T01:05:27;6.97;;;3.77;;
16965;SDS011;8599;47.852;12.070;2022-12-07T01:07:54;8.33;;;4.60;;
16965;SDS011;8599;47.852;12.070;2022-12-07T01:10:21;7.87;;;4.77;;
16965;SDS011;8599;47.852;12.070;2022-12-07T01:12:49;10.67;;;5.30;;
16965;SDS011;8599;47.852;12.070;2022-12-07T01:15:16;6.03;;;4.73;;
16965;SDS011;8599;47.852;12.070;2022-12-07T01:17:43;7.97;;;4.93;;
16965;SDS011;8599;47.852;12.070;2022-12-07T01:20:10;7.40;;;4.63;;
16965;SDS011;8599;47.852;12.070;2022-12-07T01:22:38;7.70;;;5.20;;
16965;SDS011;8599;47.852;12.070;2022-12-07T01:25:06;7.00;;;5.10;;
16965;SDS011;8599;47.852;12.070;2022-12-07T01:27:34;6.20;;;4.60;;
16965;SDS011;8599;47.852;12.070;2022-12-07T01:30:04;6.80;;;4.83;;
16965;SDS011;8599;47.852;12.070;2022-12-07T01:32:32;6.97;;;5.20;;
16965;SDS011;8599;47.852;12.070;2022-12-07T01:34:59;6.93;;;4.50;;
16965;SDS011;8599;47.852;12.070;2022-12-07T01:37:26;9.40;;;5.00;;
16965;SDS011;8599;47.852;12.070;2022-12-07T01:39:53;8.13;;;5.07;;
16965;SDS011;8599;47.852;12.070;2022-12-07T01:42:19;12.23;;;5.17;;
16965;SDS011;8599;47.852;12.070;2022-12-07T01:47:52;7.20;;;4.80;;
16965;SDS011;8599;47.852;12.070;2022-12-07T01:50:22;8.40;;;5.27;;
16965;SDS011;8599;47.852;12.070;2022-12-07T01:52:52;8.30;;;5.17;;
16965;SDS011;8599;47.852;12.070;2022-12-07T01:55:21;9.63;;;5.30;;
16965;SDS011;8599;47.852;12.070;2022-12-07T01:57:49;8.17;;;5.07;;
16965;SDS011;8599;47.852;12.070;2022-12-07T02:00:18;10.63;;;5.10;;
16965;SDS011;8599;47.852;12.070;2022-12-07T02:02:46;6.37;;;4.47;;
16965;SDS011;8599;47.852;12.070;2022-12-07T02:05:18;9.00;;;5.20;;
16965;SDS011;8599;47.852;12.070;2022-12-07T02:07:46;9.40;;;5.53;;
16965;SDS011;8599;47.852;12.070;2022-12-07T02:10:15;7.87;;;5.30;;
16965;SDS011;8599;47.852;12.070;2022-12-07T02:12:44;10.50;;;5.20;;
16965;SDS011;8599;47.852;12.070;2022-12-07T02:15:13;7.33;;;5.47;;
16965;SDS011;8599;47.852;12.070;2022-12-07T02:17:41;8.40;;;5.17;;
16965;SDS011;8599;47.852;12.070;2022-12-07T02:20:22;8.83;;;5.23;;
16965;SDS011;8599;47.852;12.070;2022-12-07T02:23:03;6.43;;;4.87;;
16965;SDS011;8599;47.852;12.070;2022-12-07T02:25:55;6.63;;;5.10;;
16965;SDS011;8599;47.852;12.070;2022-12-07T02:28:35;6.30;;;4.50;;
16965;SDS011;8599;47.852;12.070;2022-12-07T02:31:06;13.43;;;5.03;;
16965;SDS011;8599;47.852;12.070;2022-12-07T02:33:40;7.27;;;5.10;;
16965;SDS011;8599;47.852;12.070;2022-12-07T02:36:11;8.70;;;5.27;;
16965;SDS011;8599;47.852;12.070;2022-12-07T02:38:43;12.67;;;5.00;;
16965;SDS011;8599;47.852;12.070;2022-12-07T02:41:15;8.13;;;4.37;;
16965;SDS011;8599;47.852;12.070;2022-12-07T02:43:46;6.37;;;4.23;;
16965;SDS011;8599;47.852;12.070;2022-12-07T02:46:19;9.47;;;4.53;;
16965;SDS011;8599;47.852;12.070;2022-12-07T02:48:48;10.33;;;5.47;;
16965;SDS011;8599;47.852;12.070;2022-12-07T02:51:17;10.20;;;5.33;;
16965;SDS011;8599;47.852;12.070;2022-12-07T02:53:44;13.03;;;5.50;;
16965;SDS011;8599;47.852;12.070;2022-12-07T02:56:13;7.93;;;5.37;;
16965;SDS011;8599;47.852;12.070;2022-12-07T02:58:54;9.63;;;5.17;;
16965;SDS011;8599;47.852;12.070;2022-12-07T03:01:33;8.90;;;5.40;;
16965;SDS011;8599;47.852;12.070;2022-12-07T03:04:17;7.10;;;5.00;;
16965;SDS011;8599;47.852;12.070;2022-12-07T03:06:56;10.70;;;5.87;;
16965;SDS011;8599;47.852;12.070;2022-12-07T03:09:27;7.20;;;4.93;;
16965;SDS011;8599;47.852;12.070;2022-12-07T03:12:00;7.07;;;4.60;;
16965;SDS011;8599;47.852;12.070;2022-12-07T03:14:37;9.90;;;5.97;;
16965;SDS011;8599;47.852;12.070;2022-12-07T03:17:09;10.70;;;5.70;;
16965;SDS011;8599;47.852;12.070;2022-12-07T03:19:40;9.70;;;4.80;;
16965;SDS011;8599;47.852;12.070;2022-12-07T03:22:10;6.20;;;4.60;;
16965;SDS011;8599;47.852;12.070;2022-12-07T03:24:41;9.00;;;4.73;;
16965;SDS011;8599;47.852;12.070;2022-12-07T03:27:13;8.87;;;5.60;;
16965;SDS011;8599;47.852;12.070;2022-12-07T03:29:44;11.47;;;5.57;;
16965;SDS011;8599;47.852;12.070;2022-12-07T03:32:19;7.87;;;5.13;;
16965;SDS011;8599;47.852;12.070;2022-12-07T03:34:51;8.63;;;6.30;;
16965;SDS011;8599;47.852;12.070;2022-12-07T03:37:23;8.03;;;5.37;;
16965;SDS011;8599;47.852;12.070;2022-12-07T03:39:57;9.53;;;5.33;;
16965;SDS011;8599;47.852;12.070;2022-12-07T03:42:28;10.50;;;6.20;;
16965;SDS011;8599;47.852;12.070;2022-12-07T03:44:55;11.60;;;6.50;;
16965;SDS011;8599;47.852;12.070;2022-12-07T03:47:26;17.50;;;6.00;;
16965;SDS011;8599;47.852;12.070;2022-12-07T03:49:58;18.77;;;6.70;;
16965;SDS011;8599;47.852;12.070;2022-12-07T03:52:30;12.57;;;5.73;;
16965;SDS011;8599;47.852;12.070;2022-12-07T03:55:05;12.07;;;5.93;;
16965;SDS011;8599;47.852;12.070;2022-12-07T03:57:36;15.07;;;6.63;;
16965;SDS011;8599;47.852;12.070;2022-12-07T04:00:05;13.07;;;5.97;;
16965;SDS011;8599;47.852;12.070;2022-12-07T04:02:35;8.63;;;5.90;;
16965;SDS011;8599;47.852;12.070;2022-12-07T04:05:02;10.90;;;5.93;;
16965;SDS011;8599;47.852;12.070;2022-12-07T04:07:30;13.20;;;6.80;;
16965;SDS011;8599;47.852;12.070;2022-12-07T04:09:57;11.47;;;5.80;;
16965;SDS011;8599;47.852;12.070;2022-12-07T04:12:24;18.37;;;7.87;;
16965;SDS011;8599;47.852;12.070;2022-12-07T04:14:51;24.20;;;7.93;;
16965;SDS011;8599;47.852;12.070;2022-12-07T04:17:17;13.40;;;6.90;;
16965;SDS011;8599;47.852;12.070;2022-12-07T04:19:46;9.90;;;6.40;;
16965;SDS011;8599;47.852;12.070;2022-12-07T04:22:12;8.37;;;5.47;;
16965;SDS011;8599;47.852;12.070;2022-12-07T04:24:39;9.07;;;5.60;;
16965;SDS011;8599;47.852;12.070;2022-12-07T04:27:06;14.83;;;6.27;;
16965;SDS011;8599;47.852;12.070;2022-12-07T04:29:33;8.17;;;6.23;;
16965;SDS011;8599;47.852;12.070;2022-12-07T04:32:00;13.43;;;6.13;;
16965;SDS011;8599;47.852;12.070;2022-12-07T04:34:27;7.30;;;5.27;;
16965;SDS011;8599;47.852;12.070;2022-12-07T04:36:55;8.33;;;5.83;;
16965;SDS011;8599;47.852;12.070;2022-12-07T04:39:23;7.80;;;5.47;;
16965;SDS011;8599;47.852;12.070;2022-12-07T04:41:51;7.30;;;4.83;;
16965;SDS011;8599;47.852;12.070;2022-12-07T04:44:19;7.67;;;5.00;;
16965;SDS011;8599;47.852;12.070;2022-12-07T04:46:46;8.53;;;5.70;;
16965;SDS011;8599;47.852;12.070;2022-12-07T04:49:14;14.20;;;4.80;;
16965;SDS011;8599;47.852;12.070;2022-12-07T04:51:41;9.43;;;5.40;;
16965;SDS011;8599;47.852;12.070;2022-12-07T04:54:10;7.77;;;5.53;;
16965;SDS011;8599;47.852;12.070;2022-12-07T04:56:37;9.80;;;5.20;;
16965;SDS011;8599;47.852;12.070;2022-12-07T04:59:05;7.13;;;5.07;;
16965;SDS011;8599;47.852;12.070;2022-12-07T05:01:32;12.37;;;6.33;;
16965;SDS011;8599;47.852;12.070;2022-12-07T05:03:59;7.57;;;5.17;;
16965;SDS011;8599;47.852;12.070;2022-12-07T05:06:26;11.30;;;5.67;;
16965;SDS011;8599;47.852;12.070;2022-12-07T05:08:53;9.37;;;5.73;;
16965;SDS011;8599;47.852;12.070;2022-12-07T05:11:21;9.60;;;6.23;;
16965;SDS011;8599;47.852;12.070;2022-12-07T05:14:08;7.13;;;5.20;;
16965;SDS011;8599;47.852;12.070;2022-12-07T05:16:37;8.20;;;5.70;;
16965;SDS011;8599;47.852;12.070;2022-12-07T05:19:04;9.00;;;5.57;;
16965;SDS011;8599;47.852;12.070;2022-12-07T05:21:31;10.00;;;5.00;;
16965;SDS011;8599;47.852;12.070;2022-12-07T05:23:58;7.77;;;4.83;;
16965;SDS011;8599;47.852;12.070;2022-12-07T05:26:27;6.00;;;5.17;;
16965;SDS011;8599;47.852;12.070;2022-12-07T05:28:55;6.57;;;4.83;;
16965;SDS011;8599;47.852;12.070;2022-12-07T05:31:23;7.73;;;5.13;;
16965;SDS011;8599;47.852;12.070;2022-12-07T05:33:51;11.97;;;5.80;;
16965;SDS011;8599;47.852;12.070;2022-12-07T05:36:18;12.03;;;5.63;;
16965;SDS011;8599;47.852;12.070;2022-12-07T05:38:45;8.33;;;5.23;;
16965;SDS011;8599;47.852;12.070;2022-12-07T05:41:13;9.87;;;5.17;;
16965;SDS011;8599;47.852;12.070;2022-12-07T05:43:56;8.37;;;4.93;;
16965;SDS011;8599;47.852;12.070;2022-12-07T05:46:23;11.73;;;6.30;;
16965;SDS011;8599;47.852;12.070;2022-12-07T05:48:50;8.73;;;4.93;;
16965;SDS011;8599;47.852;12.070;2022-12-07T05:51:17;8.27;;;5.40;;
16965;SDS011;8599;47.852;12.070;2022-12-07T05:53:44;11.20;;;5.77;;
16965;SDS011;8599;47.852;12.070;2022-12-07T05:56:11;8.60;;;5.47;;
16965;SDS011;8599;47.852;12.070;2022-12-07T05:58:38;12.23;;;5.67;;
16965;SDS011;8599;47.852;12.070;2022-12-07T06:01:24;9.30;;;5.50;;
16965;SDS011;8599;47.852;12.070;2022-12-07T06:03:50;10.03;;;5.80;;
16965;SDS011;8599;47.852;12.070;2022-12-07T06:06:17;9.13;;;6.07;;
16965;SDS011;8599;47.852;12.070;2022-12-07T06:08:44;10.30;;;6.67;;
16965;SDS011;8599;47.852;12.070;2022-12-07T06:11:11;14.33;;;6.77;;
16965;SDS011;8599;47.852;12.070;2022-12-07T06:13:55;11.43;;;6.57;;
16965;SDS011;8599;47.852;12.070;2022-12-07T06:16:24;11.50;;;6.90;;
16965;SDS011;8599;47.852;12.070;2022-12-07T06:18:50;11.93;;;6.67;;
16965;SDS011;8599;47.852;12.070;2022-12-07T06:21:17;14.07;;;7.10;;
16965;SDS011;8599;47.852;12.070;2022-12-07T06:23:44;11.73;;;7.20;;
16965;SDS011;8599;47.852;12.070;2022-12-07T06:26:12;12.97;;;6.63;;
16965;SDS011;8599;47.852;12.070;2022-12-07T06:28:40;9.83;;;6.20;;
16965;SDS011;8599;47.852;12.070;2022-12-07T06:31:07;27.13;;;6.13;;
16965;SDS011;8599;47.852;12.070;2022-12-07T06:33:35;13.17;;;7.00;;
16965;SDS011;8599;47.852;12.070;2022-12-07T06:36:02;15.30;;;7.00;;
16965;SDS011;8599;47.852;12.070;2022-12-07T06:38:29;8.70;;;6.20;;
16965;SDS011;8599;47.852;12.070;2022-12-07T06:40:56;10.37;;;6.07;;
16965;SDS011;8599;47.852;12.070;2022-12-07T06:43:22;11.33;;;6.50;;
16965;SDS011;8599;47.852;12.070;2022-12-07T06:45:49;10.90;;;6.43;;
16965;SDS011;8599;47.852;12.070;2022-12-07T06:48:16;9.67;;;6.63;;
16965;SDS011;8599;47.852;12.070;2022-12-07T06:50:45;10.07;;;6.40;;
16965;SDS011;8599;47.852;12.070;2022-12-07T06:53:12;11.73;;;7.03;;
16965;SDS011;8599;47.852;12.070;2022-12-07T06:55:39;10.93;;;6.83;;
16965;SDS011;8599;47.852;12.070;2022-12-07T06:58:06;8.43;;;6.27;;
16965;SDS011;8599;47.852;12.070;2022-12-07T07:00:33;8.83;;;6.37;;
16965;SDS011;8599;47.852;12.070;2022-12-07T07:03:00;14.73;;;8.07;;
16965;SDS011;8599;47.852;12.070;2022-12-07T07:05:27;12.60;;;7.80;;
16965;SDS011;8599;47.852;12.070;2022-12-07T07:07:55;12.80;;;7.13;;
16965;SDS011;8599;47.852;12.070;2022-12-07T07:10:22;15.27;;;8.97;;
16965;SDS011;8599;47.852;12.070;2022-12-07T07:12:49;11.90;;;5.83;;
16965;SDS011;8599;47.852;12.070;2022-12-07T07:15:16;13.03;;;6.97;;
16965;SDS011;8599;47.852;12.070;2022-12-07T07:17:43;10.93;;;6.53;;
16965;SDS011;8599;47.852;12.070;2022-12-07T07:20:10;10.33;;;6.20;;
16965;SDS011;8599;47.852;12.070;2022-12-07T07:22:38;8.53;;;5.20;;
16965;SDS011;8599;47.852;12.070;2022-12-07T07:25:06;10.03;;;4.87;;
16965;SDS011;8599;47.852;12.070;2022-12-07T07:27:33;9.27;;;4.83;;
16965;SDS011;8599;47.852;12.070;2022-12-07T07:30:00;8.87;;;5.70;;
16965;SDS011;8599;47.852;12.070;2022-12-07T07:32:27;8.97;;;5.13;;
16965;SDS011;8599;47.852;12.070;2022-12-07T07:34:54;8.70;;;5.53;;
16965;SDS011;8599;47.852;12.070;2022-12-07T07:37:21;7.80;;;5.13;;
16965;SDS011;8599;47.852;12.070;2022-12-07T07:39:48;16.20;;;6.67;;
16965;SDS011;8599;47.852;12.070;2022-12-07T07:42:16;12.17;;;6.17;;
16965;SDS011;8599;47.852;12.070;2022-12-07T07:44:43;9.70;;;6.40;;
16965;SDS011;8599;47.852;12.070;2022-12-07T07:47:10;16.27;;;7.43;;
16965;SDS011;8599;47.852;12.070;2022-12-07T07:49:36;11.67;;;7.07;;
16965;SDS011;8599;47.852;12.070;2022-12-07T07:52:04;9.93;;;6.40;;
16965;SDS011;8599;47.852;12.070;2022-12-07T07:54:31;16.13;;;7.17;;
16965;SDS011;8599;47.852;12.070;2022-12-07T07:56:58;9.87;;;6.17;;
16965;SDS011;8599;47.852;12.070;2022-12-07T07:59:26;11.27;;;6.93;;
16965;SDS011;8599;47.852;12.070;2022-12-07T08:01:53;10.70;;;5.90;;
16965;SDS011;8599;47.852;12.070;2022-12-07T08:04:20;7.87;;;5.43;;
16965;SDS011;8599;47.852;12.070;2022-12-07T08:06:47;14.50;;;6.03;;
16965;SDS011;8599;47.852;12.070;2022-12-07T08:09:13;11.23;;;5.97;;
16965;SDS011;8599;47.852;12.070;2022-12-07T08:11:40;8.70;;;4.37;;
16965;SDS011;8599;47.852;12.070;2022-12-07T08:14:07;10.33;;;6.37;;
16965;SDS011;8599;47.852;12.070;2022-12-07T08:16:37;8.10;;;6.13;;
16965;SDS011;8599;47.852;12.070;2022-12-07T08:19:04;7.27;;;4.73;;
16965;SDS011;8599;47.852;12.070;2022-12-07T08:21:31;12.53;;;5.53;;
16965;SDS011;8599;47.852;12.070;2022-12-07T08:23:58;12.43;;;7.20;;
16965;SDS011;8599;47.852;12.070;2022-12-07T08:26:25;16.10;;;8.23;;
16965;SDS011;8599;47.852;12.070;2022-12-07T08:28:52;22.77;;;11.70;;
16965;SDS011;8599;47.852;12.070;2022-12-07T08:31:19;21.27;;;10.17;;
16965;SDS011;8599;47.852;12.070;2022-12-07T08:33:47;14.50;;;7.50;;
16965;SDS011;8599;47.852;12.070;2022-12-07T08:36:14;12.50;;;7.37;;
16965;SDS011;8599;47.852;12.070;2022-12-07T08:38:43;18.03;;;9.20;;
16965;SDS011;8599;47.852;12.070;2022-12-07T08:41:10;16.73;;;8.10;;
16965;SDS011;8599;47.852;12.070;2022-12-07T08:43:37;14.40;;;8.07;;
16965;SDS011;8599;47.852;12.070;2022-12-07T08:46:06;18.00;;;7.33;;
16965;SDS011;8599;47.852;12.070;2022-12-07T08:48:36;16.80;;;6.57;;
16965;SDS011;8599;47.852;12.070;2022-12-07T08:51:07;11.37;;;6.63;;
16965;SDS011;8599;47.852;12.070;2022-12-07T08:53:34;12.10;;;6.50;;
16965;SDS011;8599;47.852;12.070;2022-12-07T08:56:02;19.40;;;7.07;;
16965;SDS011;8599;47.852;12.070;2022-12-07T08:58:30;12.10;;;5.90;;
16965;SDS011;8599;47.852;12.070;2022-12-07T09:00:58;11.83;;;6.60;;
16965;SDS011;8599;47.852;12.070;2022-12-07T09:03:25;15.63;;;6.40;;
16965;SDS011;8599;47.852;12.070;2022-12-07T09:05:52;12.63;;;6.13;;
16965;SDS011;8599;47.852;12.070;2022-12-07T09:08:20;6.67;;;4.37;;
16965;SDS011;8599;47.852;12.070;2022-12-07T09:10:48;8.47;;;5.30;;
16965;SDS011;8599;47.852;12.070;2022-12-07T09:13:15;11.53;;;5.43;;
16965;SDS011;8599;47.852;12.070;2022-12-07T09:15:42;9.57;;;5.43;;
16965;SDS011;8599;47.852;12.070;2022-12-07T09:18:08;14.80;;;7.57;;
16965;SDS011;8599;47.852;12.070;2022-12-07T09:20:35;10.47;;;6.67;;
16965;SDS011;8599;47.852;12.070;2022-12-07T09:23:02;16.70;;;7.67;;
16965;SDS011;8599;47.852;12.070;2022-12-07T09:25:33;18.70;;;8.93;;
16965;SDS011;8599;47.852;12.070;2022-12-07T09:28:00;20.13;;;8.77;;
16965;SDS011;8599;47.852;12.070;2022-12-07T09:30:27;11.17;;;6.80;;
16965;SDS011;8599;47.852;12.070;2022-12-07T09:32:54;14.00;;;7.40;;
16965;SDS011;8599;47.852;12.070;2022-12-07T09:35:22;12.20;;;6.30;;
16965;SDS011;8599;47.852;12.070;2022-12-07T09:37:50;12.83;;;6.50;;
16965;SDS011;8599;47.852;12.070;2022-12-07T09:40:17;10.57;;;6.30;;
16965;SDS011;8599;47.852;12.070;2022-12-07T09:42:49;16.13;;;9.00;;
16965;SDS011;8599;47.852;12.070;2022-12-07T09:45:19;19.57;;;8.70;;
16965;SDS011;8599;47.852;12.070;2022-12-07T09:47:48;15.80;;;7.20;;
16965;SDS011;8599;47.852;12.070;2022-12-07T09:50:16;12.33;;;6.27;;
16965;SDS011;8599;47.852;12.070;2022-12-07T09:52:45;13.93;;;6.10;;
16965;SDS011;8599;47.852;12.070;2022-12-07T09:55:14;16.13;;;8.10;;
16965;SDS011;8599;47.852;12.070;2022-12-07T09:57:43;13.20;;;7.63;;
16965;SDS011;8599;47.852;12.070;2022-12-07T10:00:13;16.47;;;7.80;;
16965;SDS011;8599;47.852;12.070;2022-12-07T10:02:42;19.83;;;10.20;;
16965;SDS011;8599;47.852;12.070;2022-12-07T10:05:12;23.70;;;8.67;;
16965;SDS011;8599;47.852;12.070;2022-12-07T10:07:41;33.23;;;11.43;;
16965;SDS011;8599;47.852;12.070;2022-12-07T10:10:12;42.07;;;15.00;;
16965;SDS011;8599;47.852;12.070;2022-12-07T10:12:54;30.73;;;10.37;;
16965;SDS011;8599;47.852;12.070;2022-12-07T10:15:24;26.63;;;8.67;;
16965;SDS011;8599;47.852;12.070;2022-12-07T10:18:16;16.73;;;7.70;;
16965;SDS011;8599;47.852;12.070;2022-12-07T10:20:45;12.87;;;6.80;;
16965;SDS011;8599;47.852;12.070;2022-12-07T10:23:14;12.50;;;6.70;;
16965;SDS011;8599;47.852;12.070;2022-12-07T10:25:42;10.63;;;5.70;;
16965;SDS011;8599;47.852;12.070;2022-12-07T10:28:11;11.20;;;5.90;;
16965;SDS011;8599;47.852;12.070;2022-12-07T10:30:49;7.83;;;4.60;;
16965;SDS011;8599;47.852;12.070;2022-12-07T10:33:27;5.97;;;4.40;;
16965;SDS011;8599;47.852;12.070;2022-12-07T10:35:56;7.90;;;4.90;;
16965;SDS011;8599;47.852;12.070;2022-12-07T10:38:23;8.30;;;4.23;;
16965;SDS011;8599;47.852;12.070;2022-12-07T10:41:02;7.63;;;4.53;;
16965;SDS011;8599;47.852;12.070;2022-12-07T10:43:30;6.63;;;4.40;;
16965;SDS011;8599;47.852;12.070;2022-12-07T10:49:05;6.97;;;4.73;;
16965;SDS011;8599;47.852;12.070;2022-12-07T10:51:46;9.63;;;4.77;;
16965;SDS011;8599;47.852;12.070;2022-12-07T10:54:20;8.03;;;4.60;;
16965;SDS011;8599;47.852;12.070;2022-12-07T10:56:58;5.23;;;3.70;;
16965;SDS011;8599;47.852;12.070;2022-12-07T10:59:46;6.53;;;4.37;;
16965;SDS011;8599;47.852;12.070;2022-12-07T11:02:33;12.00;;;5.80;;
16965;SDS011;8599;47.852;12.070;2022-12-07T11:05:14;18.80;;;6.83;;
16965;SDS011;8599;47.852;12.070;2022-12-07T11:07:52;7.70;;;4.90;;
16965;SDS011;8599;47.852;12.070;2022-12-07T11:10:29;4.60;;;4.13;;
16965;SDS011;8599;47.852;12.070;2022-12-07T11:13:10;5.97;;;4.00;;
16965;SDS011;8599;47.852;12.070;2022-12-07T11:15:51;9.50;;;4.17;;
16965;SDS011;8599;47.852;12.070;2022-12-07T11:18:28;6.20;;;3.57;;
16965;SDS011;8599;47.852;12.070;2022-12-07T11:21:04;6.80;;;3.80;;
16965;SDS011;8599;47.852;12.070;2022-12-07T11:23:38;6.20;;;4.20;;
16965;SDS011;8599;47.852;12.070;2022-12-07T11:26:13;3.97;;;3.40;;
16965;SDS011;8599;47.852;12.070;2022-12-07T11:28:56;3.67;;;3.00;;
16965;SDS011;8599;47.852;12.070;2022-12-07T11:31:35;4.13;;;3.20;;
16965;SDS011;8599;47.852;12.070;2022-12-07T11:34:06;4.50;;;2.93;;
16965;SDS011;8599;47.852;12.070;2022-12-07T11:36:40;5.93;;;3.57;;
16965;SDS011;8599;47.852;12.070;2022-12-07T11:39:12;4.63;;;3.40;;
16965;SDS011;8599;47.852;12.070;2022-12-07T11:41:47;4.67;;;3.40;;
16965;SDS011;8599;47.852;12.070;2022-12-07T11:44:22;4.80;;;3.27;;
16965;SDS011;8599;47.852;12.070;2022-12-07T11:46:56;5.07;;;3.40;;
16965;SDS011;8599;47.852;12.070;2022-12-07T11:49:33;5.40;;;3.53;;
16965;SDS011;8599;47.852;12.070;2022-12-07T11:52:09;5.37;;;3.90;;
16965;SDS011;8599;47.852;12.070;2022-12-07T11:54:45;4.83;;;4.00;;
16965;SDS011;8599;47.852;12.070;2022-12-07T11:57:16;8.60;;;4.23;;
16965;SDS011;8599;47.852;12.070;2022-12-07T11:59:49;6.50;;;4.83;;
16965;SDS011;8599;47.852;12.070;2022-12-07T12:02:20;10.90;;;6.40;;
16965;SDS011;8599;47.852;12.070;2022-12-07T12:04:54;6.07;;;5.00;;
16965;SDS011;8599;47.852;12.070;2022-12-07T12:07:26;5.90;;;4.13;;
16965;SDS011;8599;47.852;12.070;2022-12-07T12:09:55;7.80;;;4.47;;
16965;SDS011;8599;47.852;12.070;2022-12-07T12:12:30;5.87;;;4.00;;
16965;SDS011;8599;47.852;12.070;2022-12-07T12:15:24;5.80;;;3.87;;
16965;SDS011;8599;47.852;12.070;2022-12-07T12:18:13;5.17;;;3.70;;
16965;SDS011;8599;47.852;12.070;2022-12-07T12:21:07;5.40;;;3.90;;
16965;SDS011;8599;47.852;12.070;2022-12-07T12:23:38;6.80;;;4.70;;
16965;SDS011;8599;47.852;12.070;2022-12-07T12:26:13;6.63;;;4.37;;
16965;SDS011;8599;47.852;12.070;2022-12-07T12:28:49;7.57;;;4.37;;
16965;SDS011;8599;47.852;12.070;2022-12-07T12:31:37;7.63;;;4.00;;
16965;SDS011;8599;47.852;12.070;2022-12-07T12:36:58;6.00;;;3.90;;
16965;SDS011;8599;47.852;12.070;2022-12-07T12:39:25;6.70;;;4.23;;
16965;SDS011;8599;47.852;12.070;2022-12-07T12:41:53;8.13;;;4.23;;
16965;SDS011;8599;47.852;12.070;2022-12-07T12:47:40;7.13;;;3.87;;
16965;SDS011;8599;47.852;12.070;2022-12-07T12:50:29;50.00;;;20.30;;
16965;SDS011;8599;47.852;12.070;2022-12-07T12:53:03;18.03;;;8.63;;
16965;SDS011;8599;47.852;12.070;2022-12-07T12:55:45;14.00;;;6.73;;
16965;SDS011;8599;47.852;12.070;2022-12-07T12:58:32;9.00;;;4.60;;
16965;SDS011;8599;47.852;12.070;2022-12-07T13:04:18;9.10;;;3.77;;
16965;SDS011;8599;47.852;12.070;2022-12-07T13:07:10;10.23;;;4.13;;
16965;SDS011;8599;47.852;12.070;2022-12-07T13:09:42;5.07;;;3.37;;
16965;SDS011;8599;47.852;12.070;2022-12-07T13:12:12;6.67;;;3.90;;
16965;SDS011;8599;47.852;12.070;2022-12-07T13:14:43;5.90;;;3.73;;
16965;SDS011;8599;47.852;12.070;2022-12-07T13:20:47;6.83;;;3.73;;
16965;SDS011;8599;47.852;12.070;2022-12-07T13:23:17;6.13;;;4.23;;
16965;SDS011;8599;47.852;12.070;2022-12-07T13:25:59;6.23;;;4.10;;
16965;SDS011;8599;47.852;12.070;2022-12-07T13:28:35;7.77;;;4.50;;
16965;SDS011;8599;47.852;12.070;2022-12-07T13:31:13;11.67;;;4.80;;
16965;SDS011;8599;47.852;12.070;2022-12-07T13:33:45;9.30;;;5.47;;
16965;SDS011;8599;47.852;12.070;2022-12-07T13:36:20;10.03;;;5.00;;
16965;SDS011;8599;47.852;12.070;2022-12-07T13:38:50;9.00;;;4.80;;
16965;SDS011;8599;47.852;12.070;2022-12-07T13:41:21;8.40;;;4.17;;
16965;SDS011;8599;47.852;12.070;2022-12-07T13:43:51;4.43;;;3.60;;
16965;SDS011;8599;47.852;12.070;2022-12-07T13:46:22;5.97;;;3.87;;
16965;SDS011;8599;47.852;12.070;2022-12-07T13:48:53;7.47;;;3.70;;
16965;SDS011;8599;47.852;12.070;2022-12-07T13:51:21;5.63;;;3.73;;
16965;SDS011;8599;47.852;12.070;2022-12-07T13:53:50;4.17;;;3.20;;
16965;SDS011;8599;47.852;12.070;2022-12-07T13:56:22;6.20;;;3.93;;
16965;SDS011;8599;47.852;12.070;2022-12-07T13:58:54;8.63;;;3.53;;
16965;SDS011;8599;47.852;12.070;2022-12-07T14:01:21;5.80;;;3.43;;
16965;SDS011;8599;47.852;12.070;2022-12-07T14:03:48;4.23;;;3.50;;
16965;SDS011;8599;47.852;12.070;2022-12-07T14:06:25;5.67;;;3.73;;
16965;SDS011;8599;47.852;12.070;2022-12-07T14:09:06;4.17;;;2.87;;
16965;SDS011;8599;47.852;12.070;2022-12-07T14:11:36;6.23;;;3.67;;
16965;SDS011;8599;47.852;12.070;2022-12-07T14:14:04;3.93;;;3.07;;
16965;SDS011;8599;47.852;12.070;2022-12-07T14:16:32;4.60;;;3.50;;
16965;SDS011;8599;47.852;12.070;2022-12-07T14:19:02;4.33;;;3.10;;
16965;SDS011;8599;47.852;12.070;2022-12-07T14:21:30;4.20;;;3.20;;
16965;SDS011;8599;47.852;12.070;2022-12-07T14:24:02;4.93;;;3.57;;
16965;SDS011;8599;47.852;12.070;2022-12-07T14:26:39;4.70;;;3.37;;
16965;SDS011;8599;47.852;12.070;2022-12-07T14:29:18;4.07;;;3.23;;
16965;SDS011;8599;47.852;12.070;2022-12-07T14:31:56;4.63;;;3.57;;
16965;SDS011;8599;47.852;12.070;2022-12-07T14:34:23;5.77;;;3.83;;
16965;SDS011;8599;47.852;12.070;2022-12-07T14:36:51;8.30;;;3.97;;
16965;SDS011;8599;47.852;12.070;2022-12-07T14:39:18;5.90;;;3.93;;
16965;SDS011;8599;47.852;12.070;2022-12-07T14:41:47;5.87;;;4.33;;
16965;SDS011;8599;47.852;12.070;2022-12-07T14:44:17;6.90;;;4.20;;
16965;SDS011;8599;47.852;12.070;2022-12-07T14:46:44;6.07;;;3.93;;
16965;SDS011;8599;47.852;12.070;2022-12-07T14:49:11;6.70;;;3.70;;
16965;SDS011;8599;47.852;12.070;2022-12-07T14:51:39;9.83;;;4.47;;
16965;SDS011;8599;47.852;12.070;2022-12-07T14:54:06;11.30;;;4.37;;
16965;SDS011;8599;47.852;12.070;2022-12-07T14:56:41;10.93;;;4.37;;
16965;SDS011;8599;47.852;12.070;2022-12-07T14:59:10;8.50;;;4.13;;
16965;SDS011;8599;47.852;12.070;2022-12-07T15:01:37;8.40;;;4.17;;
16965;SDS011;8599;47.852;12.070;2022-12-07T15:04:04;5.03;;;3.70;;
16965;SDS011;8599;47.852;12.070;2022-12-07T15:06:31;11.07;;;5.10;;
16965;SDS011;8599;47.852;12.070;2022-12-07T15:08:58;12.37;;;6.13;;
16965;SDS011;8599;47.852;12.070;2022-12-07T15:11:25;10.63;;;6.27;;
16965;SDS011;8599;47.852;12.070;2022-12-07T15:13:51;11.33;;;6.60;;
16965;SDS011;8599;47.852;12.070;2022-12-07T15:16:40;9.90;;;5.83;;
16965;SDS011;8599;47.852;12.070;2022-12-07T15:19:12;10.43;;;5.53;;
16965;SDS011;8599;47.852;12.070;2022-12-07T15:21:40;7.60;;;5.20;;